createdAt,value
2023-02-08T00:00:59.794Z,-5.30
2023-02-08T00:03:28.048Z,-5.28
2023-02-08T00:05:55.345Z,-5.26
2023-02-08T00:08:22.606Z,-5.37
2023-02-08T00:10:51.376Z,-5.50
2023-02-08T00:13:18.699Z,-5.30
2023-02-08T00:15:47.165Z,-5.17
2023-02-08T00:18:14.814Z,-4.98
2023-02-08T00:20:42.850Z,-5.29
2023-02-08T00:23:10.194Z,-5.40
2023-02-08T00:25:37.832Z,-5.54
2023-02-08T00:28:09.173Z,-5.52
2023-02-08T00:30:36.764Z,-5.53
2023-02-08T00:33:04.522Z,-5.55
2023-02-08T00:35:31.846Z,-5.49
2023-02-08T00:37:59.135Z,-5.57
2023-02-08T00:40:26.955Z,-5.56
2023-02-08T00:42:55.432Z,-5.41
2023-02-08T00:45:24.299Z,-5.37
2023-02-08T00:47:51.565Z,-5.51
2023-02-08T00:50:18.819Z,-5.30
2023-02-08T00:52:46.098Z,-5.50
2023-02-08T00:55:13.542Z,-5.55
2023-02-08T00:57:40.966Z,-5.40
2023-02-08T01:00:09.485Z,-5.62
2023-02-08T01:02:38.313Z,-5.74
2023-02-08T01:05:05.902Z,-5.69
2023-02-08T01:07:33.400Z,-5.81
2023-02-08T01:10:01.133Z,-5.67
2023-02-08T01:12:28.378Z,-5.61
2023-02-08T01:14:55.624Z,-5.75
2023-02-08T01:17:22.914Z,-5.78
2023-02-08T01:19:51.510Z,-5.68
2023-02-08T01:22:18.795Z,-5.75
2023-02-08T01:24:46.046Z,-5.69
2023-02-08T01:27:13.304Z,-5.85
2023-02-08T01:29:40.541Z,-5.93
2023-02-08T01:32:08.221Z,-6.02
2023-02-08T01:34:35.498Z,-6.09
2023-02-08T01:37:04.108Z,-5.93
2023-02-08T01:39:31.368Z,-5.96
2023-02-08T01:41:58.652Z,-5.99
2023-02-08T01:44:45.105Z,-5.88
2023-02-08T01:47:12.546Z,-5.81
2023-02-08T01:49:39.973Z,-5.85
2023-02-08T01:52:10.482Z,-5.76
2023-02-08T01:54:40.428Z,-5.87
2023-02-08T01:57:08.178Z,-5.79
2023-02-08T01:59:39.301Z,-5.68
2023-02-08T02:02:10.458Z,-5.53
2023-02-08T02:04:37.943Z,-5.58
2023-02-08T02:07:05.496Z,-5.61
2023-02-08T02:09:37.665Z,-5.66
2023-02-08T02:12:06.040Z,-5.52
2023-02-08T02:14:33.335Z,-5.47
2023-02-08T02:17:03.542Z,-5.45
2023-02-08T02:19:37.045Z,-5.48
2023-02-08T02:22:08.415Z,-5.51
2023-02-08T02:24:48.679Z,-5.62
2023-02-08T02:27:28.287Z,-5.63
2023-02-08T02:30:20.221Z,-5.56
2023-02-08T02:33:01.808Z,-5.61
2023-02-08T02:35:36.647Z,-5.71
2023-02-08T02:38:10.879Z,-5.69
2023-02-08T02:40:43.612Z,-5.76
2023-02-08T02:43:31.922Z,-5.78
2023-02-08T02:46:03.868Z,-5.72
2023-02-08T02:48:39.207Z,-5.81
2023-02-08T02:51:09.750Z,-5.80
2023-02-08T02:53:42.880Z,-5.97
2023-02-08T02:56:13.210Z,-5.98
2023-02-08T02:58:41.274Z,-6.17
2023-02-08T03:01:08.606Z,-6.08
2023-02-08T03:03:37.284Z,-6.19
2023-02-08T03:06:06.032Z,-5.95
2023-02-08T03:08:43.302Z,-6.08
2023-02-08T03:11:16.445Z,-6.27
2023-02-08T03:13:53.612Z,-6.34
2023-02-08T03:16:25.135Z,-6.06
2023-02-08T03:19:02.206Z,-6.13
2023-02-08T03:21:36.158Z,-6.05
2023-02-08T03:24:10.208Z,-6.10
2023-02-08T03:26:39.562Z,-6.16
2023-02-08T03:29:10.390Z,-6.22
2023-02-08T03:31:40.879Z,-6.18
2023-02-08T03:34:13.056Z,-6.33
2023-02-08T03:36:43.382Z,-6.45
2023-02-08T03:39:13.304Z,-6.32
2023-02-08T03:41:43.571Z,-6.41
2023-02-08T03:44:14.157Z,-6.54
2023-02-08T03:46:43.956Z,-6.32
2023-02-08T03:49:15.293Z,-6.47
2023-02-08T03:51:43.961Z,-6.39
2023-02-08T03:54:13.796Z,-6.49
2023-02-08T03:56:44.051Z,-6.53
2023-02-08T03:59:14.375Z,-6.53
2023-02-08T04:01:44.101Z,-6.43
2023-02-08T04:04:14.004Z,-6.40
2023-02-08T04:06:41.289Z,-6.37
2023-02-08T04:09:08.705Z,-6.43
2023-02-08T04:11:36.071Z,-6.51
2023-02-08T04:14:03.364Z,-6.50
2023-02-08T04:16:30.626Z,-6.48
2023-02-08T04:18:57.902Z,-6.62
2023-02-08T04:21:27.356Z,-6.69
2023-02-08T04:23:54.619Z,-6.63
2023-02-08T04:26:21.900Z,-6.75
2023-02-08T04:28:49.225Z,-6.83
2023-02-08T04:31:16.707Z,-6.66
2023-02-08T04:33:44.006Z,-6.71
2023-02-08T04:36:11.775Z,-6.83
2023-02-08T04:38:40.349Z,-6.86
2023-02-08T04:41:07.650Z,-6.73
2023-02-08T04:43:35.641Z,-6.75
2023-02-08T04:46:02.960Z,-6.74
2023-02-08T04:48:30.322Z,-6.72
2023-02-08T04:50:58.218Z,-6.80
2023-02-08T04:53:25.924Z,-6.87
2023-02-08T04:55:54.502Z,-6.74
2023-02-08T04:58:21.781Z,-6.67
2023-02-08T05:00:49.163Z,-6.71
2023-02-08T05:03:16.441Z,-6.80
2023-02-08T05:05:43.698Z,-6.88
2023-02-08T05:08:11.003Z,-6.83
2023-02-08T05:10:38.458Z,-6.81
2023-02-08T05:13:07.186Z,-6.81
2023-02-08T05:15:35.401Z,-6.81
2023-02-08T05:18:02.664Z,-6.89
2023-02-08T05:20:30.668Z,-6.97
2023-02-08T05:22:57.930Z,-6.80
2023-02-08T05:25:25.194Z,-6.84
2023-02-08T05:27:53.543Z,-6.80
2023-02-08T05:30:22.281Z,-6.73
2023-02-08T05:32:50.257Z,-6.66
2023-02-08T05:35:17.539Z,-6.70
2023-02-08T05:37:44.802Z,-6.72
2023-02-08T05:40:13.122Z,-6.44
2023-02-08T05:42:42.307Z,-6.32
2023-02-08T05:45:09.908Z,-6.31
2023-02-08T05:47:38.585Z,-6.11
2023-02-08T05:50:06.284Z,-6.06
2023-02-08T05:52:33.550Z,-6.02
2023-02-08T05:55:00.796Z,-5.83
2023-02-08T05:57:29.652Z,-5.81
2023-02-08T05:59:58.415Z,-5.80
2023-02-08T06:02:25.726Z,-5.67
2023-02-08T06:04:54.336Z,-5.77
2023-02-08T06:07:21.596Z,-5.66
2023-02-08T06:09:48.850Z,-5.61
2023-02-08T06:12:16.113Z,-5.55
2023-02-08T06:14:43.449Z,-5.48
2023-02-08T06:17:10.708Z,-5.46
2023-02-08T06:19:37.976Z,-5.39
2023-02-08T06:22:06.572Z,-5.36
2023-02-08T06:24:34.129Z,-5.26
2023-02-08T06:27:01.398Z,-5.22
2023-02-08T06:29:28.720Z,-5.17
2023-02-08T06:31:56.072Z,-5.12
2023-02-08T06:34:23.643Z,-5.05
2023-02-08T06:36:50.969Z,-5.05
2023-02-08T06:39:19.571Z,-4.92
2023-02-08T06:41:46.835Z,-4.80
2023-02-08T06:44:14.117Z,-4.81
2023-02-08T06:46:41.393Z,-4.68
2023-02-08T06:49:08.717Z,-4.60
2023-02-08T06:51:35.989Z,-4.62
2023-02-08T06:54:03.288Z,-4.54
2023-02-08T06:56:31.870Z,-4.45
2023-02-08T06:58:59.206Z,-4.47
2023-02-08T07:01:26.525Z,-4.36
2023-02-08T07:03:54.151Z,-4.30
2023-02-08T07:06:21.452Z,-4.23
2023-02-08T07:08:48.861Z,-4.22
2023-02-08T07:11:17.213Z,-4.28
2023-02-08T07:13:47.574Z,-4.10
2023-02-08T07:16:15.197Z,-4.01
2023-02-08T07:18:42.490Z,-3.91
2023-02-08T07:21:11.323Z,-3.89
2023-02-08T07:23:38.605Z,-3.78
2023-02-08T07:26:06.999Z,-3.72
2023-02-08T07:28:34.339Z,-3.62
2023-02-08T07:31:05.370Z,-3.61
2023-02-08T07:33:32.744Z,-3.43
2023-02-08T07:36:00.084Z,-3.40
2023-02-08T07:38:27.367Z,-3.31
2023-02-08T07:41:00.703Z,-3.26
2023-02-08T07:43:27.978Z,-3.18
2023-02-08T07:45:55.328Z,-3.18
2023-02-08T07:48:23.976Z,-3.10
2023-02-08T07:50:51.263Z,-2.91
2023-02-08T07:53:18.530Z,-2.90
2023-02-08T07:55:46.393Z,-2.83
2023-02-08T07:58:14.158Z,-2.77
2023-02-08T08:00:41.721Z,-2.71
2023-02-08T08:03:09.254Z,-2.57
2023-02-08T08:05:40.690Z,-2.48
2023-02-08T08:08:07.962Z,-2.40
2023-02-08T08:10:35.257Z,-2.44
2023-02-08T08:13:02.717Z,-2.38
2023-02-08T08:15:30.446Z,-2.38
2023-02-08T08:17:58.101Z,-2.19
2023-02-08T08:20:25.515Z,-2.04
2023-02-08T08:22:54.117Z,-1.94
2023-02-08T08:25:21.506Z,-1.91
2023-02-08T08:27:49.144Z,-1.82
2023-02-08T08:30:17.807Z,-1.78
2023-02-08T08:32:45.170Z,-1.68
2023-02-08T08:35:12.491Z,-1.63
2023-02-08T08:37:39.780Z,-1.59
2023-02-08T08:40:09.374Z,-1.69
2023-02-08T08:42:37.195Z,-1.44
2023-02-08T08:45:04.664Z,-1.43
2023-02-08T08:47:32.219Z,-1.41
2023-02-08T08:49:59.524Z,-1.28
2023-02-08T08:52:26.811Z,-1.22
2023-02-08T08:54:54.070Z,-1.16
2023-02-08T08:57:22.712Z,-1.17
2023-02-08T08:59:49.976Z,-1.01
2023-02-08T09:02:17.286Z,-0.85
2023-02-08T09:04:44.639Z,-0.95
2023-02-08T09:07:11.953Z,-0.80
2023-02-08T09:09:40.805Z,-0.58
2023-02-08T09:12:08.599Z,-0.44
2023-02-08T09:14:37.205Z,-0.54
2023-02-08T09:17:05.690Z,-0.43
2023-02-08T09:19:32.971Z,-0.31
2023-02-08T09:22:00.635Z,-0.31
2023-02-08T09:24:28.043Z,-0.32
2023-02-08T09:26:55.592Z,-0.46
2023-02-08T09:29:22.864Z,-0.37
2023-02-08T09:31:51.530Z,-0.38
2023-02-08T09:34:18.891Z,-0.28
2023-02-08T09:36:46.316Z,-0.08
2023-02-08T09:39:15.356Z,0.07
2023-02-08T09:42:09.639Z,0.10
2023-02-08T09:44:42.123Z,0.30
2023-02-08T09:47:13.543Z,0.46
2023-02-08T09:49:44.231Z,0.46
2023-02-08T09:52:13.842Z,0.51
2023-02-08T09:54:44.265Z,0.37
2023-02-08T09:57:27.440Z,0.49
2023-02-08T09:59:56.629Z,0.41
2023-02-08T10:02:27.190Z,0.56
2023-02-08T10:04:59.345Z,0.59
2023-02-08T10:07:27.469Z,0.77
2023-02-08T10:09:54.977Z,0.70
2023-02-08T10:12:29.712Z,0.88
2023-02-08T10:15:03.153Z,1.00
2023-02-08T10:17:46.234Z,1.00
2023-02-08T10:20:24.053Z,0.92
2023-02-08T10:22:58.169Z,0.98
2023-02-08T10:25:42.312Z,0.81
2023-02-08T10:28:25.894Z,0.92
2023-02-08T10:30:57.016Z,0.85
2023-02-08T10:33:28.136Z,1.06
2023-02-08T10:35:56.088Z,1.16
2023-02-08T10:38:37.237Z,1.23
2023-02-08T10:41:08.767Z,1.25
2023-02-08T10:43:41.230Z,1.07
2023-02-08T10:46:13.060Z,1.09
2023-02-08T10:48:47.413Z,1.21
2023-02-08T10:51:16.731Z,1.13
2023-02-08T10:53:44.274Z,1.24
2023-02-08T10:56:23.045Z,1.35
2023-02-08T10:58:50.453Z,1.37
2023-02-08T11:01:17.822Z,1.22
2023-02-08T11:04:00.118Z,1.38
2023-02-08T11:06:28.757Z,1.65
2023-02-08T11:08:58.649Z,1.53
2023-02-08T11:11:29.674Z,1.64
2023-02-08T11:14:06.382Z,1.45
2023-02-08T11:16:33.711Z,1.42
2023-02-08T11:19:01.960Z,1.53
2023-02-08T11:21:33.572Z,1.60
2023-02-08T11:24:02.538Z,1.54
2023-02-08T11:26:33.912Z,1.63
2023-02-08T11:29:03.006Z,1.75
2023-02-08T11:31:30.795Z,1.76
2023-02-08T11:34:02.452Z,1.77
2023-02-08T11:36:32.939Z,1.91
2023-02-08T11:39:02.397Z,1.78
2023-02-08T11:41:29.786Z,1.79
2023-02-08T11:44:00.338Z,1.83
2023-02-08T11:46:29.382Z,1.87
2023-02-08T11:48:57.051Z,2.09
2023-02-08T11:51:27.020Z,2.12
2023-02-08T11:53:56.956Z,1.83
2023-02-08T11:56:25.247Z,1.95
2023-02-08T11:59:00.744Z,2.11
2023-02-08T12:01:29.900Z,1.98
2023-02-08T12:03:58.865Z,1.96
2023-02-08T12:06:40.600Z,1.97
2023-02-08T12:09:15.609Z,1.90
2023-02-08T12:11:44.218Z,1.94
2023-02-08T12:14:26.410Z,1.92
2023-02-08T12:17:02.439Z,2.13
2023-02-08T12:19:46.212Z,2.17
2023-02-08T12:22:16.900Z,2.30
2023-02-08T12:24:49.996Z,2.19
2023-02-08T12:27:31.761Z,2.14
2023-02-08T12:30:04.740Z,2.13
2023-02-08T12:32:38.362Z,2.21
2023-02-08T12:35:24.155Z,1.94
2023-02-08T12:38:17.938Z,1.94
2023-02-08T12:40:50.768Z,2.02
2023-02-08T12:43:24.952Z,2.01
2023-02-08T12:46:13.503Z,1.79
2023-02-08T12:48:45.670Z,1.79
2023-02-08T12:51:18.904Z,1.90
2023-02-08T12:53:47.623Z,1.89
2023-02-08T12:56:18.294Z,1.91
2023-02-08T12:58:46.743Z,1.99
2023-02-08T13:01:16.213Z,1.91
2023-02-08T13:03:46.090Z,1.92
2023-02-08T13:06:16.202Z,1.91
2023-02-08T13:08:47.026Z,1.87
2023-02-08T13:11:21.822Z,1.85
2023-02-08T13:13:54.403Z,1.93
2023-02-08T13:16:23.406Z,1.90
2023-02-08T13:18:53.817Z,1.83
2023-02-08T13:21:23.509Z,1.78
2023-02-08T13:23:53.015Z,1.88
2023-02-08T13:26:26.273Z,1.87
2023-02-08T13:28:54.777Z,1.98
2023-02-08T13:31:23.965Z,2.04
2023-02-08T13:34:01.309Z,2.06
2023-02-08T13:36:31.315Z,2.00
2023-02-08T13:38:59.678Z,1.98
2023-02-08T13:41:29.526Z,1.90
2023-02-08T13:43:58.984Z,1.96
2023-02-08T13:46:28.243Z,1.95
2023-02-08T13:48:57.180Z,2.00
2023-02-08T13:51:51.379Z,1.98
2023-02-08T13:54:18.667Z,2.01
2023-02-08T13:56:48.169Z,1.89
2023-02-08T13:59:26.589Z,2.05
2023-02-08T14:02:13.214Z,2.05
2023-02-08T14:04:41.312Z,1.94
2023-02-08T14:07:23.312Z,1.89
2023-02-08T14:09:59.681Z,1.92
2023-02-08T14:12:34.745Z,1.99
2023-02-08T14:15:06.055Z,2.04
2023-02-08T14:17:33.798Z,2.03
2023-02-08T14:20:02.767Z,1.97
2023-02-08T14:22:37.473Z,2.01
2023-02-08T14:25:06.121Z,1.94
2023-02-08T14:27:37.775Z,1.85
2023-02-08T14:30:07.389Z,1.91
2023-02-08T14:32:36.634Z,1.90
2023-02-08T14:35:05.537Z,1.81
2023-02-08T14:37:33.841Z,1.74
2023-02-08T14:40:21.358Z,1.79
2023-02-08T14:42:58.548Z,1.67
2023-02-08T14:45:29.679Z,1.71
2023-02-08T14:47:58.714Z,1.69
2023-02-08T14:50:29.091Z,1.65
2023-02-08T14:53:06.391Z,1.42
2023-02-08T14:55:38.492Z,1.52
2023-02-08T14:58:09.066Z,1.52
2023-02-08T15:00:38.655Z,1.54
2023-02-08T15:03:06.946Z,1.42
2023-02-08T15:05:36.709Z,1.35
2023-02-08T15:08:04.237Z,1.32
2023-02-08T15:10:33.119Z,1.31
2023-02-08T15:13:03.650Z,1.33
2023-02-08T15:15:33.698Z,1.31
2023-02-08T15:18:02.289Z,1.31
2023-02-08T15:20:30.837Z,1.30
2023-02-08T15:22:59.546Z,1.28
2023-02-08T15:25:28.125Z,1.27
2023-02-08T15:27:57.393Z,1.21
2023-02-08T15:30:33.061Z,1.17
2023-02-08T15:33:02.174Z,1.18
2023-02-08T15:35:30.010Z,1.17
2023-02-08T15:37:58.083Z,1.12
2023-02-08T15:40:27.127Z,1.01
2023-02-08T15:42:54.455Z,1.08
2023-02-08T15:45:24.612Z,0.97
2023-02-08T15:47:52.913Z,1.07
2023-02-08T15:50:23.172Z,1.33
2023-02-08T15:52:53.004Z,1.42
2023-02-08T15:55:20.403Z,1.55
2023-02-08T15:57:49.148Z,1.72
2023-02-08T16:00:17.571Z,1.71
2023-02-08T16:02:46.647Z,1.79
2023-02-08T16:05:20.472Z,1.74
2023-02-08T16:07:49.322Z,1.74
2023-02-08T16:10:24.918Z,1.78
2023-02-08T16:12:53.469Z,1.45
2023-02-08T16:15:37.489Z,1.62
2023-02-08T16:18:04.942Z,1.56
2023-02-08T16:20:34.065Z,1.62
2023-02-08T16:23:04.385Z,1.65
2023-02-08T16:25:34.811Z,1.46
2023-02-08T16:28:02.235Z,1.23
2023-02-08T16:30:29.730Z,1.30
2023-02-08T16:32:57.292Z,1.22
2023-02-08T16:35:26.037Z,1.33
2023-02-08T16:37:58.927Z,1.57
2023-02-08T16:40:48.600Z,1.42
2023-02-08T16:43:18.053Z,1.28
2023-02-08T16:45:45.329Z,1.18
2023-02-08T16:48:31.324Z,1.23
2023-02-08T16:50:59.248Z,1.17
2023-02-08T16:53:40.381Z,1.19
2023-02-08T16:56:10.069Z,1.05
2023-02-08T16:58:38.735Z,1.15
2023-02-08T17:01:06.623Z,0.99
2023-02-08T17:03:39.588Z,1.03
2023-02-08T17:06:07.280Z,1.11
2023-02-08T17:08:35.807Z,1.02
2023-02-08T17:11:03.081Z,0.95
2023-02-08T17:13:30.371Z,0.95
2023-02-08T17:15:59.977Z,0.74
2023-02-08T17:18:27.367Z,0.69
2023-02-08T17:20:59.485Z,0.83
2023-02-08T17:23:26.850Z,0.36
2023-02-08T17:25:54.184Z,0.14
2023-02-08T17:28:22.030Z,-0.02
2023-02-08T17:30:50.244Z,-0.09
2023-02-08T17:33:19.140Z,-0.20
2023-02-08T17:35:47.288Z,-0.30
2023-02-08T17:38:15.452Z,-0.16
2023-02-08T17:40:44.539Z,0.08
2023-02-08T17:43:12.831Z,0.08
2023-02-08T17:45:41.520Z,0.07
2023-02-08T17:48:09.000Z,0.16
2023-02-08T17:50:37.794Z,0.03
2023-02-08T17:53:05.064Z,-0.01
2023-02-08T17:55:32.474Z,0.05
2023-02-08T17:57:59.780Z,0.04
2023-02-08T18:00:27.062Z,-0.01
2023-02-08T18:02:55.611Z,-0.01
2023-02-08T18:05:24.180Z,-0.16
2023-02-08T18:07:53.020Z,-0.30
2023-02-08T18:10:20.584Z,-0.14
2023-02-08T18:12:48.214Z,-0.20
2023-02-08T18:15:19.430Z,-0.11
2023-02-08T18:17:47.641Z,-0.34
2023-02-08T18:20:16.190Z,-0.60
2023-02-08T18:22:44.283Z,-0.52
2023-02-08T18:25:13.527Z,-0.49
2023-02-08T18:27:40.799Z,-0.66
2023-02-08T18:30:08.531Z,-0.54
2023-02-08T18:32:35.858Z,-0.55
2023-02-08T18:35:04.355Z,-0.59
2023-02-08T18:37:31.979Z,-0.68
2023-02-08T18:39:59.524Z,-0.73
2023-02-08T18:42:28.198Z,-0.73
2023-02-08T18:44:55.590Z,-0.93
2023-02-08T18:47:22.890Z,-1.09
2023-02-08T18:49:53.368Z,-1.21
2023-02-08T18:52:20.847Z,-1.31
2023-02-08T18:54:48.202Z,-1.28
2023-02-08T18:57:15.741Z,-1.19
2023-02-08T18:59:44.366Z,-1.07
2023-02-08T19:02:20.555Z,-0.90
2023-02-08T19:04:48.422Z,-0.90
2023-02-08T19:07:16.175Z,-0.94
2023-02-08T19:09:43.903Z,-1.04
2023-02-08T19:12:15.240Z,-1.08
2023-02-08T19:14:44.108Z,-1.09
2023-02-08T19:17:14.283Z,-1.07
2023-02-08T19:19:42.047Z,-0.93
2023-02-08T19:22:09.374Z,-1.23
2023-02-08T19:24:36.675Z,-1.18
2023-02-08T19:27:03.975Z,-1.11
2023-02-08T19:29:33.191Z,-1.13
2023-02-08T19:32:01.837Z,-1.19
2023-02-08T19:34:29.159Z,-0.95
2023-02-08T19:36:58.463Z,-0.95
2023-02-08T19:39:27.386Z,-1.03
2023-02-08T19:41:55.395Z,-1.05
2023-02-08T19:44:23.136Z,-1.05
2023-02-08T19:46:54.504Z,-0.94
2023-02-08T19:49:25.607Z,-0.95
2023-02-08T19:51:52.957Z,-0.86
2023-02-08T19:54:20.772Z,-0.91
2023-02-08T19:56:50.368Z,-0.92
2023-02-08T19:59:19.516Z,-0.97
2023-02-08T20:01:47.400Z,-0.94
2023-02-08T20:04:14.875Z,-0.78
2023-02-08T20:06:44.856Z,-0.76
2023-02-08T20:09:12.902Z,-0.77
2023-02-08T20:11:55.795Z,-0.71
2023-02-08T20:14:24.239Z,-0.71
2023-02-08T20:16:51.605Z,-0.72
2023-02-08T20:19:18.926Z,-0.69
2023-02-08T20:21:51.494Z,-0.79
2023-02-08T20:24:19.257Z,-0.72
2023-02-08T20:26:47.094Z,-0.72
2023-02-08T20:29:14.984Z,-0.73
2023-02-08T20:31:43.430Z,-0.74
2023-02-08T20:34:13.071Z,-0.83
2023-02-08T20:36:47.701Z,-0.82
2023-02-08T20:39:23.180Z,-0.79
2023-02-08T20:41:50.479Z,-0.99
2023-02-08T20:44:18.636Z,-0.84
2023-02-08T20:46:46.535Z,-0.87
2023-02-08T20:49:15.205Z,-0.97
2023-02-08T20:51:43.270Z,-0.92
2023-02-08T20:54:11.001Z,-0.85
2023-02-08T20:56:39.847Z,-0.94
2023-02-08T20:59:08.532Z,-0.92
2023-02-08T21:01:36.912Z,-1.02
2023-02-08T21:04:04.778Z,-1.05
2023-02-08T21:06:33.741Z,-0.96
2023-02-08T21:09:01.659Z,-0.89
2023-02-08T21:11:29.934Z,-0.98
2023-02-08T21:13:59.033Z,-0.96
2023-02-08T21:16:26.387Z,-0.97
2023-02-08T21:18:54.261Z,-0.90
2023-02-08T21:21:22.080Z,-0.86
2023-02-08T21:23:49.776Z,-0.79
2023-02-08T21:26:18.453Z,-0.83
2023-02-08T21:28:46.281Z,-0.69
2023-02-08T21:31:16.583Z,-0.76
2023-02-08T21:33:44.286Z,-0.83
2023-02-08T21:36:14.197Z,-0.68
2023-02-08T21:38:41.569Z,-0.64
2023-02-08T21:41:09.466Z,-0.63
2023-02-08T21:43:37.251Z,-0.65
2023-02-08T21:46:05.026Z,-0.48
2023-02-08T21:48:53.758Z,-0.54
2023-02-08T21:51:38.761Z,-0.53
2023-02-08T21:54:24.397Z,-0.48
2023-02-08T21:56:51.916Z,-0.41
2023-02-08T21:59:19.161Z,-0.52
2023-02-08T22:01:46.462Z,-0.44
2023-02-08T22:04:15.091Z,-0.46
2023-02-08T22:06:42.368Z,-0.43
2023-02-08T22:09:09.647Z,-0.33
2023-02-08T22:11:36.920Z,-0.42
2023-02-08T22:14:04.206Z,-0.54
2023-02-08T22:16:35.391Z,-0.51
2023-02-08T22:19:02.661Z,-0.40
2023-02-08T22:21:31.257Z,-0.39
2023-02-08T22:23:58.558Z,-0.38
2023-02-08T22:26:25.837Z,-0.36
2023-02-08T22:28:53.547Z,-0.34
2023-02-08T22:31:21.178Z,-0.33
2023-02-08T22:33:48.535Z,-0.44
2023-02-08T22:36:15.806Z,-0.48
2023-02-08T22:38:44.425Z,-0.40
2023-02-08T22:41:12.120Z,-0.40
2023-02-08T22:43:39.437Z,-0.46
2023-02-08T22:46:07.133Z,-0.41
2023-02-08T22:48:34.666Z,-0.47
2023-02-08T22:51:05.653Z,-0.50
2023-02-08T22:53:32.922Z,-0.50
2023-02-08T22:56:01.838Z,-0.56
2023-02-08T22:58:29.186Z,-0.57
2023-02-08T23:00:56.458Z,-0.50
2023-02-08T23:03:23.820Z,-0.49
2023-02-08T23:05:51.668Z,-0.58
2023-02-08T23:08:20.087Z,-0.59
2023-02-08T23:10:47.639Z,-0.56
2023-02-08T23:13:16.245Z,-0.67
2023-02-08T23:15:44.801Z,-0.60
2023-02-08T23:18:12.127Z,-0.54
2023-02-08T23:20:39.972Z,-0.56
2023-02-08T23:23:07.633Z,-0.60
2023-02-08T23:25:34.942Z,-0.66
2023-02-08T23:28:02.333Z,-0.67
2023-02-08T23:30:31.048Z,-0.67
2023-02-08T23:32:58.316Z,-0.70
2023-02-08T23:35:25.604Z,-0.80
2023-02-08T23:37:52.935Z,-0.88
2023-02-08T23:40:20.327Z,-0.69
2023-02-08T23:42:47.623Z,-0.73
2023-02-08T23:45:14.918Z,-0.69
2023-02-08T23:47:43.522Z,-0.66
2023-02-08T23:50:11.253Z,-0.64
2023-02-08T23:52:38.546Z,-0.69
2023-02-08T23:55:06.744Z,-0.67
2023-02-08T23:57:34.651Z,-0.68
